createdAt,value
2022-12-23T00:02:10.619Z,20.00
2022-12-23T00:04:39.744Z,19.30
2022-12-23T00:07:08.506Z,19.00
2022-12-23T00:09:37.405Z,20.10
2022-12-23T00:12:25.197Z,20.50
2022-12-23T00:15:06.209Z,20.00
2022-12-23T00:17:42.883Z,20.00
2022-12-23T00:20:14.665Z,19.80
2022-12-23T00:23:02.003Z,19.00
2022-12-23T00:25:40.817Z,21.30
2022-12-23T00:28:23.125Z,20.70
2022-12-23T00:31:00.915Z,19.50
2022-12-23T00:33:48.328Z,20.50
2022-12-23T00:36:28.382Z,20.20
2022-12-23T00:39:18.261Z,19.80
2022-12-23T00:42:06.076Z,20.70
2022-12-23T00:44:34.840Z,18.40
2022-12-23T00:47:03.496Z,20.80
2022-12-23T00:49:44.680Z,19.50
2022-12-23T00:52:18.495Z,21.40
2022-12-23T00:54:47.205Z,20.00
2022-12-23T00:57:15.914Z,22.40
2022-12-23T00:59:44.702Z,21.60
2022-12-23T01:02:31.997Z,21.60
2022-12-23T01:05:56.820Z,22.20
2022-12-23T01:08:26.699Z,21.60
2022-12-23T01:13:24.514Z,17.80
2022-12-23T01:16:15.116Z,19.70
2022-12-23T01:18:46.592Z,20.30
2022-12-23T01:21:15.598Z,19.50
2022-12-23T01:23:44.288Z,19.50
2022-12-23T01:26:13.275Z,19.80
2022-12-23T01:28:42.071Z,21.50
2022-12-23T01:31:11.369Z,20.70
2022-12-23T01:33:40.333Z,20.70
2022-12-23T01:36:10.676Z,21.00
2022-12-23T01:38:39.455Z,18.70
2022-12-23T01:41:08.085Z,20.10
2022-12-23T01:43:50.844Z,19.60
2022-12-23T01:46:20.721Z,19.80
2022-12-23T01:48:52.642Z,21.10
2022-12-23T01:51:30.134Z,20.30
2022-12-23T01:54:02.280Z,19.90
2022-12-23T01:56:38.514Z,20.10
2022-12-23T01:59:33.019Z,19.50
2022-12-23T02:02:21.062Z,19.60
2022-12-23T02:04:50.909Z,20.20
2022-12-23T02:07:38.264Z,19.60
2022-12-23T02:10:08.593Z,17.60
2022-12-23T02:13:00.751Z,18.80
2022-12-23T02:16:05.531Z,18.60
2022-12-23T02:18:46.412Z,19.90
2022-12-23T02:21:25.277Z,19.50
2022-12-23T02:24:03.210Z,18.80
2022-12-23T02:26:50.193Z,19.60
2022-12-23T02:29:53.181Z,19.40
2022-12-23T02:32:53.303Z,19.90
2022-12-23T02:35:56.223Z,19.40
2022-12-23T02:38:45.031Z,18.00
2022-12-23T02:41:33.610Z,21.10
2022-12-23T02:45:01.782Z,17.60
2022-12-23T02:47:40.745Z,17.60
2022-12-23T02:50:21.990Z,18.90
2022-12-23T02:52:53.449Z,18.00
2022-12-23T02:55:29.526Z,19.10
2022-12-23T02:58:03.389Z,20.50
2022-12-23T03:00:33.424Z,19.40
2022-12-23T03:03:02.181Z,18.20
2022-12-23T03:05:47.004Z,19.80
2022-12-23T03:08:25.493Z,18.70
2022-12-23T03:11:03.201Z,18.20
2022-12-23T03:14:09.041Z,20.10
2022-12-23T03:17:08.652Z,19.50
2022-12-23T03:20:08.089Z,18.80
2022-12-23T03:22:52.075Z,17.40
2022-12-23T03:25:34.435Z,17.70
2022-12-23T03:28:18.987Z,17.80
2022-12-23T03:30:57.998Z,20.20
2022-12-23T03:33:33.447Z,19.00
2022-12-23T03:36:23.772Z,17.50
2022-12-23T03:38:56.134Z,18.10
2022-12-23T03:41:39.461Z,18.70
2022-12-23T03:44:27.265Z,18.00
2022-12-23T03:47:08.166Z,18.50
2022-12-23T03:49:54.743Z,16.90
2022-12-23T03:52:35.953Z,19.10
2022-12-23T03:55:10.546Z,19.30
2022-12-23T03:57:48.455Z,19.90
2022-12-23T04:00:17.296Z,18.90
2022-12-23T04:03:06.882Z,18.30
2022-12-23T04:08:23.431Z,17.90
2022-12-23T04:10:53.727Z,18.20
2022-12-23T04:13:22.435Z,18.50
2022-12-23T04:15:51.116Z,17.30
2022-12-23T04:18:20.122Z,17.90
2022-12-23T04:20:48.944Z,16.30
2022-12-23T04:23:17.703Z,19.50
2022-12-23T04:25:46.698Z,18.80
2022-12-23T04:28:15.719Z,18.20
2022-12-23T04:30:44.671Z,17.20
2022-12-23T04:33:13.873Z,17.20
2022-12-23T04:35:42.503Z,19.60
2022-12-23T04:38:11.867Z,18.70
2022-12-23T04:40:40.684Z,18.00
2022-12-23T04:43:09.433Z,17.70
2022-12-23T04:45:38.327Z,17.90
2022-12-23T04:48:07.622Z,17.00
2022-12-23T04:50:36.125Z,18.70
2022-12-23T04:53:04.919Z,16.80
2022-12-23T04:55:33.617Z,18.70
2022-12-23T04:58:02.172Z,17.60
2022-12-23T05:00:37.134Z,17.50
2022-12-23T05:03:08.352Z,18.60
2022-12-23T05:05:43.067Z,18.20
2022-12-23T05:08:12.672Z,18.00
2022-12-23T05:10:41.473Z,18.30
2022-12-23T05:13:10.134Z,17.80
2022-12-23T05:15:43.992Z,17.20
2022-12-23T05:18:13.016Z,20.10
2022-12-23T05:20:41.734Z,20.80
2022-12-23T05:23:10.626Z,18.80
2022-12-23T05:25:40.395Z,18.40
2022-12-23T05:28:09.749Z,18.30
2022-12-23T05:30:38.428Z,16.90
2022-12-23T05:33:07.357Z,16.30
2022-12-23T05:35:35.927Z,18.20
2022-12-23T05:38:04.566Z,17.70
2022-12-23T05:40:34.053Z,17.80
2022-12-23T05:43:02.973Z,17.70
2022-12-23T05:45:31.783Z,17.20
2022-12-23T05:48:00.651Z,19.60
2022-12-23T05:50:29.895Z,18.10
2022-12-23T05:52:58.771Z,18.10
2022-12-23T05:55:27.540Z,19.70
2022-12-23T05:57:56.569Z,17.40
2022-12-23T06:00:29.027Z,19.10
2022-12-23T06:02:57.678Z,18.10
2022-12-23T06:05:26.522Z,20.10
2022-12-23T06:07:55.153Z,18.40
2022-12-23T06:10:23.793Z,17.70
2022-12-23T06:12:53.209Z,17.60
2022-12-23T06:15:21.967Z,18.80
2022-12-23T06:17:53.918Z,17.20
2022-12-23T06:20:23.099Z,15.90
2022-12-23T06:22:51.814Z,17.80
2022-12-23T06:25:20.617Z,18.60
2022-12-23T06:27:49.372Z,19.20
2022-12-23T06:30:17.987Z,18.20
2022-12-23T06:32:46.585Z,17.70
2022-12-23T06:35:15.221Z,19.00
2022-12-23T06:37:44.842Z,19.30
2022-12-23T06:40:13.944Z,20.00
2022-12-23T06:42:42.922Z,18.30
2022-12-23T06:45:12.207Z,20.70
2022-12-23T06:47:44.894Z,19.30
2022-12-23T06:50:13.766Z,18.20
2022-12-23T06:52:42.865Z,21.60
2022-12-23T06:55:11.684Z,20.80
2022-12-23T06:57:40.435Z,17.70
2022-12-23T07:00:10.454Z,19.40
2022-12-23T07:02:39.286Z,20.70
2022-12-23T07:05:08.510Z,19.60
2022-12-23T07:07:37.185Z,19.70
2022-12-23T07:10:06.939Z,20.30
2022-12-23T07:15:05.726Z,17.90
2022-12-23T07:17:38.427Z,18.60
2022-12-23T07:20:08.620Z,18.90
2022-12-23T07:22:37.617Z,18.40
2022-12-23T07:25:07.375Z,18.70
2022-12-23T07:30:05.115Z,18.20
2022-12-23T07:32:33.756Z,19.90
2022-12-23T07:35:02.502Z,17.80
2022-12-23T07:37:34.884Z,19.40
2022-12-23T07:40:08.307Z,18.50
2022-12-23T07:42:46.828Z,19.80
2022-12-23T07:45:16.084Z,19.40
2022-12-23T07:47:44.825Z,20.80
2022-12-23T07:50:14.038Z,18.50
2022-12-23T07:52:42.785Z,21.30
2022-12-23T07:55:12.081Z,20.70
2022-12-23T07:57:40.998Z,18.70
2022-12-23T08:00:12.811Z,18.80
2022-12-23T08:02:42.768Z,20.00
2022-12-23T08:05:13.708Z,20.90
2022-12-23T08:07:42.657Z,21.20
2022-12-23T08:10:12.635Z,20.10
2022-12-23T08:12:41.287Z,19.20
2022-12-23T08:15:10.308Z,21.30
2022-12-23T08:17:39.142Z,20.80
2022-12-23T08:20:08.988Z,22.10
2022-12-23T08:22:37.748Z,20.20
2022-12-23T08:25:07.054Z,21.00
2022-12-23T08:27:36.129Z,20.20
2022-12-23T08:30:05.576Z,20.10
2022-12-23T08:32:34.283Z,20.30
2022-12-23T08:35:03.020Z,21.10
2022-12-23T08:37:31.647Z,19.10
2022-12-23T08:40:00.193Z,21.30
2022-12-23T08:42:28.820Z,20.40
2022-12-23T08:44:57.435Z,19.10
2022-12-23T08:47:27.682Z,21.20
2022-12-23T08:49:56.311Z,19.50
2022-12-23T08:52:24.944Z,20.20
2022-12-23T08:54:53.709Z,20.70
2022-12-23T08:57:22.507Z,20.60
2022-12-23T08:59:52.021Z,21.00
2022-12-23T09:02:20.813Z,22.30
2022-12-23T09:04:49.577Z,20.90
2022-12-23T09:07:18.270Z,21.90
2022-12-23T09:09:46.915Z,20.30
2022-12-23T09:12:15.558Z,20.50
2022-12-23T09:14:47.834Z,19.10
2022-12-23T09:17:17.967Z,20.00
2022-12-23T09:19:52.925Z,19.50
2022-12-23T09:22:22.139Z,21.30
2022-12-23T09:24:50.980Z,20.80
2022-12-23T09:27:19.738Z,20.00
2022-12-23T09:29:48.488Z,21.00
2022-12-23T09:32:17.380Z,22.40
2022-12-23T09:34:45.992Z,22.90
2022-12-23T09:37:16.890Z,21.40
2022-12-23T09:39:45.557Z,20.00
2022-12-23T09:43:14.591Z,21.90
2022-12-23T09:46:19.204Z,21.50
2022-12-23T09:48:59.293Z,20.60
2022-12-23T09:51:29.482Z,20.80
2022-12-23T09:54:26.396Z,20.70
2022-12-23T09:57:12.755Z,21.00
2022-12-23T10:00:05.905Z,21.70
2022-12-23T10:03:14.992Z,21.20
2022-12-23T10:06:02.838Z,21.80
2022-12-23T10:08:47.101Z,20.80
2022-12-23T10:11:25.814Z,20.70
2022-12-23T10:14:27.850Z,20.90
2022-12-23T10:17:14.563Z,22.50
2022-12-23T10:19:47.582Z,22.80
2022-12-23T10:22:42.254Z,23.80
2022-12-23T10:25:41.477Z,22.40
2022-12-23T10:28:11.259Z,22.40
2022-12-23T10:31:05.759Z,23.50
2022-12-23T10:34:07.162Z,22.10
2022-12-23T10:37:12.089Z,22.40
2022-12-23T10:40:02.126Z,21.10
2022-12-23T10:42:54.314Z,19.80
2022-12-23T10:46:22.707Z,21.80
2022-12-23T10:49:29.023Z,21.90
2022-12-23T10:52:04.223Z,21.90
2022-12-23T10:54:35.618Z,22.00
2022-12-23T10:57:06.164Z,22.10
2022-12-23T10:59:36.648Z,21.20
2022-12-23T11:02:24.238Z,22.90
2022-12-23T11:04:53.313Z,20.70
2022-12-23T11:07:43.986Z,20.20
2022-12-23T11:10:26.417Z,20.90
2022-12-23T11:12:55.493Z,20.70
2022-12-23T11:15:36.982Z,20.80
2022-12-23T11:18:14.734Z,20.80
2022-12-23T11:20:46.426Z,23.80
2022-12-23T11:23:27.151Z,22.10
2022-12-23T11:26:13.610Z,22.00
2022-12-23T11:28:51.680Z,22.70
2022-12-23T11:31:33.792Z,22.40
2022-12-23T11:34:06.867Z,21.90
2022-12-23T11:36:36.323Z,21.30
2022-12-23T11:39:20.100Z,22.30
2022-12-23T11:41:53.355Z,23.40
2022-12-23T11:44:56.496Z,23.00
2022-12-23T11:47:41.868Z,22.90
2022-12-23T11:50:40.353Z,22.20
2022-12-23T11:53:23.756Z,22.10
2022-12-23T11:56:15.556Z,23.60
2022-12-23T11:58:53.542Z,23.20
2022-12-23T12:01:25.682Z,22.70
2022-12-23T12:04:22.659Z,21.30
2022-12-23T12:06:56.608Z,22.30
2022-12-23T12:09:25.668Z,21.30
2022-12-23T12:12:05.990Z,23.30
2022-12-23T12:14:47.480Z,22.40
2022-12-23T12:17:32.325Z,23.90
2022-12-23T12:20:12.224Z,24.40
2022-12-23T12:22:54.349Z,23.10
2022-12-23T12:25:39.553Z,22.40
2022-12-23T12:28:16.537Z,22.10
2022-12-23T12:30:56.835Z,22.40
2022-12-23T12:33:41.643Z,23.70
2022-12-23T12:36:29.134Z,21.60
2022-12-23T12:39:00.544Z,27.00
2022-12-23T12:41:40.080Z,27.40
2022-12-23T12:44:46.445Z,25.00
2022-12-23T12:47:52.921Z,23.40
2022-12-23T12:50:23.865Z,21.70
2022-12-23T12:52:57.076Z,22.30
2022-12-23T12:55:40.465Z,21.60
2022-12-23T12:58:20.358Z,23.40
2022-12-23T13:01:08.111Z,22.10
2022-12-23T13:04:12.993Z,21.00
2022-12-23T13:07:10.556Z,22.90
2022-12-23T13:10:14.875Z,22.00
2022-12-23T13:13:16.534Z,21.70
2022-12-23T13:15:50.449Z,22.60
2022-12-23T13:18:54.934Z,22.80
2022-12-23T13:21:48.899Z,20.90
2022-12-23T13:24:35.218Z,24.10
2022-12-23T13:27:24.867Z,21.90
2022-12-23T13:33:07.198Z,25.30
2022-12-23T13:38:50.505Z,22.10
2022-12-23T13:41:40.167Z,21.90
2022-12-23T13:44:11.371Z,21.60
2022-12-23T13:47:06.388Z,22.90
2022-12-23T13:49:40.846Z,22.90
2022-12-23T13:52:22.883Z,22.90
2022-12-23T13:55:24.911Z,22.50
2022-12-23T13:58:17.356Z,22.30
2022-12-23T14:00:46.646Z,23.80
2022-12-23T14:03:24.514Z,22.80
2022-12-23T14:05:53.866Z,23.00
2022-12-23T14:08:29.711Z,21.50
2022-12-23T14:11:33.742Z,23.00
2022-12-23T14:14:06.499Z,24.60
2022-12-23T14:17:11.261Z,24.10
2022-12-23T14:20:34.085Z,25.70
2022-12-23T14:23:16.939Z,27.40
2022-12-23T14:26:16.311Z,26.60
2022-12-23T14:28:57.283Z,23.50
2022-12-23T14:31:46.426Z,24.50
2022-12-23T14:34:18.332Z,24.80
2022-12-23T14:37:21.210Z,25.70
2022-12-23T14:39:51.419Z,26.60
2022-12-23T14:42:43.386Z,30.10
2022-12-23T14:45:36.724Z,33.60
2022-12-23T14:48:34.726Z,31.00
2022-12-23T14:51:09.844Z,28.40
2022-12-23T14:53:58.833Z,28.40
2022-12-23T14:56:39.853Z,33.00
2022-12-23T14:59:47.046Z,28.60
2022-12-23T15:02:30.897Z,33.00
2022-12-23T15:05:00.582Z,32.90
2022-12-23T15:07:39.113Z,29.60
2022-12-23T15:10:22.847Z,29.10
2022-12-23T15:13:06.268Z,31.20
2022-12-23T15:15:35.066Z,29.50
2022-12-23T15:18:11.552Z,27.50
2022-12-23T15:20:41.171Z,30.40
2022-12-23T15:23:16.501Z,28.50
2022-12-23T15:25:49.167Z,25.40
2022-12-23T15:28:22.573Z,23.50
2022-12-23T15:30:57.158Z,23.60
2022-12-23T15:36:37.575Z,24.30
2022-12-23T15:39:19.775Z,23.70
2022-12-23T15:41:49.333Z,23.90
2022-12-23T15:44:25.523Z,22.10
2022-12-23T15:46:54.457Z,23.30
2022-12-23T15:49:23.414Z,23.30
2022-12-23T15:52:13.940Z,22.50
2022-12-23T15:54:57.958Z,24.60
2022-12-23T15:57:29.044Z,24.20
2022-12-23T15:59:59.697Z,23.50
2022-12-23T16:05:27.422Z,24.50
2022-12-23T16:08:15.559Z,23.60
2022-12-23T16:11:13.499Z,24.10
2022-12-23T16:13:59.227Z,21.20
2022-12-23T16:16:43.474Z,23.90
2022-12-23T16:19:41.957Z,24.10
2022-12-23T16:22:33.709Z,24.40
2022-12-23T16:25:17.307Z,26.00
2022-12-23T16:28:05.065Z,27.50
2022-12-23T16:30:37.756Z,25.50
2022-12-23T16:33:40.407Z,27.70
2022-12-23T16:36:33.558Z,26.70
2022-12-23T16:39:23.412Z,26.10
2022-12-23T16:41:52.160Z,25.30
2022-12-23T16:44:21.544Z,27.40
2022-12-23T16:46:51.965Z,26.10
2022-12-23T16:49:27.919Z,26.70
2022-12-23T16:51:58.879Z,26.90
2022-12-23T16:54:27.541Z,28.10
2022-12-23T16:56:56.378Z,28.20
2022-12-23T16:59:26.246Z,26.90
2022-12-23T17:02:01.388Z,26.10
2022-12-23T17:04:32.317Z,26.20
2022-12-23T17:07:01.339Z,25.10
2022-12-23T17:09:30.102Z,25.50
2022-12-23T17:11:58.904Z,27.80
2022-12-23T17:14:27.670Z,25.40
2022-12-23T17:16:56.390Z,26.60
2022-12-23T17:22:03.035Z,24.90
2022-12-23T17:24:32.276Z,27.90
2022-12-23T17:27:01.232Z,26.90
2022-12-23T17:29:30.742Z,26.50
2022-12-23T17:31:59.741Z,27.10
2022-12-23T17:34:28.385Z,25.70
2022-12-23T17:36:58.989Z,27.50
2022-12-23T17:39:27.852Z,26.50
2022-12-23T17:41:56.635Z,27.50
2022-12-23T17:44:25.516Z,28.10
2022-12-23T17:46:54.208Z,27.90
2022-12-23T17:49:23.108Z,27.50
2022-12-23T17:51:51.981Z,28.00
2022-12-23T17:54:25.044Z,28.40
2022-12-23T17:56:53.869Z,27.40
2022-12-23T17:59:22.659Z,28.90
2022-12-23T18:01:54.445Z,29.70
2022-12-23T18:04:23.213Z,28.90
2022-12-23T18:06:51.992Z,28.50
2022-12-23T18:09:21.584Z,28.10
2022-12-23T18:14:32.062Z,27.60
2022-12-23T18:17:00.825Z,27.00
2022-12-23T18:19:31.292Z,26.40
2022-12-23T18:22:03.352Z,27.20
2022-12-23T18:24:31.981Z,27.90
2022-12-23T18:27:00.822Z,27.20
2022-12-23T18:29:29.398Z,27.20
2022-12-23T18:31:58.117Z,26.90
2022-12-23T18:34:26.877Z,26.80
2022-12-23T18:36:55.699Z,27.00
2022-12-23T18:39:24.455Z,26.50
2022-12-23T18:41:53.039Z,26.90
2022-12-23T18:44:21.957Z,25.80
2022-12-23T18:46:51.019Z,24.80
2022-12-23T18:49:19.810Z,27.60
2022-12-23T18:51:49.645Z,25.40
2022-12-23T18:54:18.438Z,28.20
2022-12-23T18:56:47.813Z,27.90
2022-12-23T18:59:24.205Z,27.20
2022-12-23T19:01:56.758Z,25.40
2022-12-23T19:04:27.344Z,25.80
2022-12-23T19:06:57.174Z,27.10
2022-12-23T19:09:26.737Z,26.80
2022-12-23T19:11:55.409Z,24.00
2022-12-23T19:14:24.194Z,27.30
2022-12-23T19:16:53.183Z,25.60
2022-12-23T19:19:23.122Z,25.20
2022-12-23T19:21:51.980Z,26.30
2022-12-23T19:24:20.872Z,24.80
2022-12-23T19:26:49.755Z,28.20
2022-12-23T19:29:18.549Z,24.90
2022-12-23T19:31:49.274Z,26.70
2022-12-23T19:34:18.370Z,27.80
2022-12-23T19:36:47.260Z,25.70
2022-12-23T19:39:17.385Z,23.90
2022-12-23T19:41:46.273Z,25.90
2022-12-23T19:44:15.192Z,24.40
2022-12-23T19:49:14.048Z,27.40
2022-12-23T19:51:46.577Z,27.30
2022-12-23T19:54:15.775Z,28.70
2022-12-23T19:56:45.386Z,27.20
2022-12-23T19:59:14.148Z,28.20
2022-12-23T20:01:43.477Z,27.40
2022-12-23T20:04:13.050Z,27.60
2022-12-23T20:06:42.890Z,26.10
2022-12-23T20:09:13.944Z,26.50
2022-12-23T20:11:46.084Z,26.80
2022-12-23T20:14:18.189Z,26.30
2022-12-23T20:16:48.666Z,24.90
2022-12-23T20:19:18.177Z,28.10
2022-12-23T20:21:47.054Z,24.70
2022-12-23T20:24:16.539Z,26.20
2022-12-23T20:26:46.193Z,26.70
2022-12-23T20:29:14.985Z,24.80
2022-12-23T20:31:44.293Z,27.10
2022-12-23T20:34:17.449Z,25.40
2022-12-23T20:36:47.063Z,24.40
2022-12-23T20:39:15.945Z,25.80
2022-12-23T20:41:44.696Z,24.60
2022-12-23T20:47:02.071Z,23.20
2022-12-23T20:49:30.757Z,26.00
2022-12-23T20:51:59.577Z,26.60
2022-12-23T20:54:33.186Z,25.80
2022-12-23T20:57:03.422Z,26.20
2022-12-23T20:59:32.054Z,25.70
2022-12-23T21:02:01.237Z,25.40
2022-12-23T21:04:30.034Z,26.20
2022-12-23T21:06:58.817Z,25.60
2022-12-23T21:09:27.507Z,25.60
2022-12-23T21:11:56.174Z,24.50
2022-12-23T21:14:24.935Z,24.70
2022-12-23T21:16:54.780Z,25.00
2022-12-23T21:19:26.154Z,24.90
2022-12-23T21:21:54.896Z,25.20
2022-12-23T21:24:23.884Z,25.50
2022-12-23T21:26:56.803Z,27.60
2022-12-23T21:29:26.720Z,26.40
2022-12-23T21:31:55.666Z,26.10
2022-12-23T21:34:24.476Z,26.20
2022-12-23T21:36:53.121Z,25.10
2022-12-23T21:39:21.979Z,25.90
2022-12-23T21:41:51.754Z,26.80
2022-12-23T21:44:20.571Z,25.80
2022-12-23T21:46:51.911Z,24.20
2022-12-23T21:49:20.916Z,26.30
2022-12-23T21:51:50.639Z,28.60
2022-12-23T21:56:47.816Z,26.40
2022-12-23T21:59:16.503Z,26.20
2022-12-23T22:01:45.719Z,26.50
2022-12-23T22:04:14.497Z,26.60
2022-12-23T22:06:44.768Z,27.50
2022-12-23T22:09:18.994Z,27.40
2022-12-23T22:11:48.833Z,27.90
2022-12-23T22:16:48.817Z,26.10
2022-12-23T22:19:17.693Z,26.80
2022-12-23T22:21:46.324Z,25.40
2022-12-23T22:24:15.139Z,27.10
2022-12-23T22:26:43.908Z,29.10
2022-12-23T22:29:12.801Z,29.20
2022-12-23T22:31:53.377Z,29.80
2022-12-23T22:34:23.367Z,28.80
2022-12-23T22:36:52.345Z,29.00
2022-12-23T22:39:22.193Z,29.30
2022-12-23T22:44:21.486Z,27.60
2022-12-23T22:46:50.470Z,26.60
2022-12-23T22:49:19.379Z,28.80
2022-12-23T22:51:48.053Z,28.40
2022-12-23T22:54:16.743Z,28.80
2022-12-23T22:56:48.334Z,25.70
2022-12-23T22:59:24.749Z,26.90
2022-12-23T23:01:54.510Z,26.40
2022-12-23T23:04:23.629Z,26.00
2022-12-23T23:06:52.363Z,25.40
2022-12-23T23:09:22.712Z,27.10
2022-12-23T23:11:51.673Z,25.00
2022-12-23T23:14:21.072Z,24.90
2022-12-23T23:16:49.883Z,24.50
2022-12-23T23:19:20.818Z,25.10
2022-12-23T23:21:49.692Z,25.00
2022-12-23T23:24:18.263Z,24.50
2022-12-23T23:26:47.061Z,26.00
2022-12-23T23:29:15.847Z,25.40
2022-12-23T23:31:45.103Z,26.00
2022-12-23T23:34:14.550Z,25.10
2022-12-23T23:36:43.448Z,24.60
2022-12-23T23:39:13.330Z,24.70
2022-12-23T23:44:12.017Z,24.70
2022-12-23T23:46:40.783Z,25.40
2022-12-23T23:49:09.467Z,25.30
2022-12-23T23:51:39.382Z,26.10
2022-12-23T23:54:09.160Z,26.00
2022-12-23T23:59:09.511Z,24.30
